sensor_id;sensor_type;location;lat;lon;timestamp;temperature;humidity
35804;DHT22;21924;51.934;7.414;2023-04-06T00:00:05;3.90;99.90
35804;DHT22;21924;51.934;7.414;2023-04-06T00:02:51;3.90;99.90
35804;DHT22;21924;51.934;7.414;2023-04-06T00:05:36;4.10;99.90
35804;DHT22;21924;51.934;7.414;2023-04-06T00:08:20;4.10;99.90
35804;DHT22;21924;51.934;7.414;2023-04-06T00:11:05;4.00;99.90
35804;DHT22;21924;51.934;7.414;2023-04-06T00:13:49;4.10;99.90
35804;DHT22;21924;51.934;7.414;2023-04-06T00:16:33;4.10;99.90
35804;DHT22;21924;51.934;7.414;2023-04-06T00:19:18;4.10;99.90
35804;DHT22;21924;51.934;7.414;2023-04-06T00:22:02;4.00;99.90
35804;DHT22;21924;51.934;7.414;2023-04-06T00:24:46;3.90;99.90
35804;DHT22;21924;51.934;7.414;2023-04-06T00:27:30;3.90;99.90
35804;DHT22;21924;51.934;7.414;2023-04-06T00:30:15;3.80;99.90
35804;DHT22;21924;51.934;7.414;2023-04-06T00:32:59;3.80;99.90
35804;DHT22;21924;51.934;7.414;2023-04-06T00:35:44;3.90;99.90
35804;DHT22;21924;51.934;7.414;2023-04-06T00:38:28;3.70;99.90
35804;DHT22;21924;51.934;7.414;2023-04-06T00:41:13;3.60;99.90
35804;DHT22;21924;51.934;7.414;2023-04-06T00:43:57;3.70;99.90
35804;DHT22;21924;51.934;7.414;2023-04-06T00:46:42;3.80;99.90
35804;DHT22;21924;51.934;7.414;2023-04-06T00:49:26;3.80;99.90
35804;DHT22;21924;51.934;7.414;2023-04-06T00:52:10;3.80;99.90
35804;DHT22;21924;51.934;7.414;2023-04-06T00:54:55;3.80;99.90
35804;DHT22;21924;51.934;7.414;2023-04-06T00:57:39;3.70;99.90
35804;DHT22;21924;51.934;7.414;2023-04-06T01:00:24;3.70;99.90
35804;DHT22;21924;51.934;7.414;2023-04-06T01:03:09;3.70;99.90
35804;DHT22;21924;51.934;7.414;2023-04-06T01:05:54;3.70;99.90
35804;DHT22;21924;51.934;7.414;2023-04-06T01:08:42;3.70;99.90
35804;DHT22;21924;51.934;7.414;2023-04-06T01:11:26;3.60;99.90
35804;DHT22;21924;51.934;7.414;2023-04-06T01:14:11;3.70;99.90
35804;DHT22;21924;51.934;7.414;2023-04-06T01:16:58;3.60;99.90
35804;DHT22;21924;51.934;7.414;2023-04-06T01:19:42;3.50;99.90
35804;DHT22;21924;51.934;7.414;2023-04-06T01:22:26;3.40;99.90
35804;DHT22;21924;51.934;7.414;2023-04-06T01:25:10;3.40;99.90
35804;DHT22;21924;51.934;7.414;2023-04-06T01:27:55;3.30;99.90
35804;DHT22;21924;51.934;7.414;2023-04-06T01:30:39;3.30;99.90
35804;DHT22;21924;51.934;7.414;2023-04-06T01:33:24;3.30;99.90
35804;DHT22;21924;51.934;7.414;2023-04-06T01:36:08;3.30;99.90
35804;DHT22;21924;51.934;7.414;2023-04-06T01:38:52;3.20;99.90
35804;DHT22;21924;51.934;7.414;2023-04-06T01:41:37;3.20;99.90
35804;DHT22;21924;51.934;7.414;2023-04-06T01:44:21;3.20;99.90
35804;DHT22;21924;51.934;7.414;2023-04-06T01:47:05;3.10;99.90
35804;DHT22;21924;51.934;7.414;2023-04-06T01:49:49;3.00;99.90
35804;DHT22;21924;51.934;7.414;2023-04-06T01:52:33;3.10;99.90
35804;DHT22;21924;51.934;7.414;2023-04-06T01:55:18;3.20;99.90
35804;DHT22;21924;51.934;7.414;2023-04-06T01:58:02;3.10;99.90
35804;DHT22;21924;51.934;7.414;2023-04-06T02:00:46;3.10;99.90
35804;DHT22;21924;51.934;7.414;2023-04-06T02:03:31;3.00;99.90
35804;DHT22;21924;51.934;7.414;2023-04-06T02:06:15;2.80;99.90
35804;DHT22;21924;51.934;7.414;2023-04-06T02:09:00;2.70;99.90
35804;DHT22;21924;51.934;7.414;2023-04-06T02:11:44;2.70;99.90
35804;DHT22;21924;51.934;7.414;2023-04-06T02:14:29;2.50;99.90
35804;DHT22;21924;51.934;7.414;2023-04-06T02:17:13;2.50;99.90
35804;DHT22;21924;51.934;7.414;2023-04-06T02:19:57;2.40;99.90
35804;DHT22;21924;51.934;7.414;2023-04-06T02:22:42;2.30;99.90
35804;DHT22;21924;51.934;7.414;2023-04-06T02:25:26;2.20;99.90
35804;DHT22;21924;51.934;7.414;2023-04-06T02:28:10;2.20;99.90
35804;DHT22;21924;51.934;7.414;2023-04-06T02:30:54;2.10;99.90
35804;DHT22;21924;51.934;7.414;2023-04-06T02:33:39;2.00;99.90
35804;DHT22;21924;51.934;7.414;2023-04-06T02:36:23;2.00;99.90
35804;DHT22;21924;51.934;7.414;2023-04-06T02:39:07;1.90;99.90
35804;DHT22;21924;51.934;7.414;2023-04-06T02:41:51;1.90;99.90
35804;DHT22;21924;51.934;7.414;2023-04-06T02:44:36;1.90;99.90
35804;DHT22;21924;51.934;7.414;2023-04-06T02:47:20;1.80;99.90
35804;DHT22;21924;51.934;7.414;2023-04-06T02:50:04;1.80;99.90
35804;DHT22;21924;51.934;7.414;2023-04-06T02:52:49;1.90;99.90
35804;DHT22;21924;51.934;7.414;2023-04-06T02:55:33;1.80;99.90
35804;DHT22;21924;51.934;7.414;2023-04-06T02:58:17;1.80;99.90
35804;DHT22;21924;51.934;7.414;2023-04-06T03:01:01;1.70;99.90
35804;DHT22;21924;51.934;7.414;2023-04-06T03:03:45;1.70;99.90
35804;DHT22;21924;51.934;7.414;2023-04-06T03:06:30;1.70;99.90
35804;DHT22;21924;51.934;7.414;2023-04-06T03:09:14;1.60;99.90
35804;DHT22;21924;51.934;7.414;2023-04-06T03:11:58;1.60;99.90
35804;DHT22;21924;51.934;7.414;2023-04-06T03:14:42;1.50;99.90
35804;DHT22;21924;51.934;7.414;2023-04-06T03:17:27;1.50;99.90
35804;DHT22;21924;51.934;7.414;2023-04-06T03:20:11;1.50;99.90
35804;DHT22;21924;51.934;7.414;2023-04-06T03:22:55;1.50;99.90
35804;DHT22;21924;51.934;7.414;2023-04-06T03:25:40;1.40;99.90
35804;DHT22;21924;51.934;7.414;2023-04-06T03:28:24;1.50;99.90
35804;DHT22;21924;51.934;7.414;2023-04-06T03:31:08;1.50;99.90
35804;DHT22;21924;51.934;7.414;2023-04-06T03:33:53;1.60;99.90
35804;DHT22;21924;51.934;7.414;2023-04-06T03:36:37;1.60;99.90
35804;DHT22;21924;51.934;7.414;2023-04-06T03:39:21;1.60;99.90
35804;DHT22;21924;51.934;7.414;2023-04-06T03:42:05;1.50;99.90
35804;DHT22;21924;51.934;7.414;2023-04-06T03:44:50;1.40;99.90
35804;DHT22;21924;51.934;7.414;2023-04-06T03:47:34;1.30;99.90
35804;DHT22;21924;51.934;7.414;2023-04-06T03:50:18;1.30;99.90
35804;DHT22;21924;51.934;7.414;2023-04-06T03:53:03;1.30;99.90
35804;DHT22;21924;51.934;7.414;2023-04-06T03:55:47;1.20;99.90
35804;DHT22;21924;51.934;7.414;2023-04-06T03:58:31;1.20;99.90
35804;DHT22;21924;51.934;7.414;2023-04-06T04:01:16;1.20;99.90
35804;DHT22;21924;51.934;7.414;2023-04-06T04:04:00;1.20;99.90
35804;DHT22;21924;51.934;7.414;2023-04-06T04:06:44;1.10;99.90
35804;DHT22;21924;51.934;7.414;2023-04-06T04:09:29;1.10;99.90
35804;DHT22;21924;51.934;7.414;2023-04-06T04:12:13;1.00;99.90
35804;DHT22;21924;51.934;7.414;2023-04-06T04:14:59;1.00;99.90
35804;DHT22;21924;51.934;7.414;2023-04-06T04:17:43;1.00;99.90
35804;DHT22;21924;51.934;7.414;2023-04-06T04:20:30;1.00;99.90
35804;DHT22;21924;51.934;7.414;2023-04-06T04:23:15;1.00;99.90
35804;DHT22;21924;51.934;7.414;2023-04-06T04:25:59;1.10;99.90
35804;DHT22;21924;51.934;7.414;2023-04-06T04:28:44;1.00;99.90
35804;DHT22;21924;51.934;7.414;2023-04-06T04:31:28;1.00;99.90
35804;DHT22;21924;51.934;7.414;2023-04-06T04:34:12;0.90;99.90
35804;DHT22;21924;51.934;7.414;2023-04-06T04:36:57;0.90;99.90
35804;DHT22;21924;51.934;7.414;2023-04-06T04:39:41;0.90;99.90
35804;DHT22;21924;51.934;7.414;2023-04-06T04:42:25;0.80;99.90
35804;DHT22;21924;51.934;7.414;2023-04-06T04:45:10;0.80;99.90
35804;DHT22;21924;51.934;7.414;2023-04-06T04:47:54;0.80;99.90
35804;DHT22;21924;51.934;7.414;2023-04-06T04:50:38;0.80;99.90
35804;DHT22;21924;51.934;7.414;2023-04-06T04:53:22;0.80;99.90
35804;DHT22;21924;51.934;7.414;2023-04-06T04:56:07;0.80;99.90
35804;DHT22;21924;51.934;7.414;2023-04-06T04:58:51;0.80;99.90
35804;DHT22;21924;51.934;7.414;2023-04-06T05:01:35;0.80;99.90
35804;DHT22;21924;51.934;7.414;2023-04-06T05:04:19;0.80;99.90
35804;DHT22;21924;51.934;7.414;2023-04-06T05:07:08;0.80;99.90
35804;DHT22;21924;51.934;7.414;2023-04-06T05:09:52;0.80;99.90
35804;DHT22;21924;51.934;7.414;2023-04-06T05:12:37;0.80;99.90
35804;DHT22;21924;51.934;7.414;2023-04-06T05:15:22;0.80;99.90
35804;DHT22;21924;51.934;7.414;2023-04-06T05:18:07;0.80;99.90
35804;DHT22;21924;51.934;7.414;2023-04-06T05:20:51;0.80;99.90
35804;DHT22;21924;51.934;7.414;2023-04-06T05:23:35;0.90;99.90
35804;DHT22;21924;51.934;7.414;2023-04-06T05:26:19;1.00;99.90
35804;DHT22;21924;51.934;7.414;2023-04-06T05:29:04;1.10;99.90
35804;DHT22;21924;51.934;7.414;2023-04-06T05:31:48;1.20;99.90
35804;DHT22;21924;51.934;7.414;2023-04-06T05:34:32;1.20;99.90
35804;DHT22;21924;51.934;7.414;2023-04-06T05:37:17;1.30;99.90
35804;DHT22;21924;51.934;7.414;2023-04-06T05:40:01;1.30;99.90
35804;DHT22;21924;51.934;7.414;2023-04-06T05:42:46;1.50;99.90
35804;DHT22;21924;51.934;7.414;2023-04-06T05:45:30;1.50;99.90
35804;DHT22;21924;51.934;7.414;2023-04-06T05:48:15;1.60;99.90
35804;DHT22;21924;51.934;7.414;2023-04-06T05:50:59;1.60;99.90
35804;DHT22;21924;51.934;7.414;2023-04-06T05:53:45;1.70;99.90
35804;DHT22;21924;51.934;7.414;2023-04-06T05:56:30;1.80;99.90
35804;DHT22;21924;51.934;7.414;2023-04-06T05:59:16;1.80;99.90
35804;DHT22;21924;51.934;7.414;2023-04-06T06:02:00;2.00;99.90
35804;DHT22;21924;51.934;7.414;2023-04-06T06:04:45;2.00;99.90
35804;DHT22;21924;51.934;7.414;2023-04-06T06:07:29;2.10;99.90
35804;DHT22;21924;51.934;7.414;2023-04-06T06:10:14;2.10;99.90
35804;DHT22;21924;51.934;7.414;2023-04-06T06:12:58;2.20;99.90
35804;DHT22;21924;51.934;7.414;2023-04-06T06:15:42;2.20;99.90
35804;DHT22;21924;51.934;7.414;2023-04-06T06:18:26;2.30;99.90
35804;DHT22;21924;51.934;7.414;2023-04-06T06:21:11;2.40;99.90
35804;DHT22;21924;51.934;7.414;2023-04-06T06:23:56;2.40;99.90
35804;DHT22;21924;51.934;7.414;2023-04-06T06:26:40;2.50;99.90
35804;DHT22;21924;51.934;7.414;2023-04-06T06:29:24;2.60;99.90
35804;DHT22;21924;51.934;7.414;2023-04-06T06:32:09;2.70;99.90
35804;DHT22;21924;51.934;7.414;2023-04-06T06:34:53;2.80;99.90
35804;DHT22;21924;51.934;7.414;2023-04-06T06:37:38;2.80;99.90
35804;DHT22;21924;51.934;7.414;2023-04-06T06:40:22;2.90;99.90
35804;DHT22;21924;51.934;7.414;2023-04-06T06:43:07;3.00;99.90
35804;DHT22;21924;51.934;7.414;2023-04-06T06:45:52;3.20;99.90
35804;DHT22;21924;51.934;7.414;2023-04-06T06:48:36;3.30;99.90
35804;DHT22;21924;51.934;7.414;2023-04-06T06:51:20;3.40;99.90
35804;DHT22;21924;51.934;7.414;2023-04-06T06:54:05;3.50;99.90
35804;DHT22;21924;51.934;7.414;2023-04-06T06:56:49;3.60;99.90
35804;DHT22;21924;51.934;7.414;2023-04-06T06:59:33;3.70;99.90
35804;DHT22;21924;51.934;7.414;2023-04-06T07:02:18;3.70;99.90
35804;DHT22;21924;51.934;7.414;2023-04-06T07:05:03;3.80;99.90
35804;DHT22;21924;51.934;7.414;2023-04-06T07:07:48;3.80;99.90
35804;DHT22;21924;51.934;7.414;2023-04-06T07:10:32;3.90;99.90
35804;DHT22;21924;51.934;7.414;2023-04-06T07:13:16;4.00;99.90
35804;DHT22;21924;51.934;7.414;2023-04-06T07:16:05;4.00;99.90
35804;DHT22;21924;51.934;7.414;2023-04-06T07:18:50;4.10;99.90
35804;DHT22;21924;51.934;7.414;2023-04-06T07:21:35;4.10;99.90
35804;DHT22;21924;51.934;7.414;2023-04-06T07:24:19;4.30;99.90
35804;DHT22;21924;51.934;7.414;2023-04-06T07:27:03;4.40;99.90
35804;DHT22;21924;51.934;7.414;2023-04-06T07:29:47;4.40;99.90
35804;DHT22;21924;51.934;7.414;2023-04-06T07:32:31;4.50;99.90
35804;DHT22;21924;51.934;7.414;2023-04-06T07:35:16;4.60;99.90
35804;DHT22;21924;51.934;7.414;2023-04-06T07:38:00;4.80;99.90
35804;DHT22;21924;51.934;7.414;2023-04-06T07:40:45;4.80;99.90
35804;DHT22;21924;51.934;7.414;2023-04-06T07:43:29;4.80;99.90
35804;DHT22;21924;51.934;7.414;2023-04-06T07:46:14;4.90;99.90
35804;DHT22;21924;51.934;7.414;2023-04-06T07:49:00;5.00;99.90
35804;DHT22;21924;51.934;7.414;2023-04-06T07:51:45;5.10;99.90
35804;DHT22;21924;51.934;7.414;2023-04-06T07:54:29;5.20;99.90
35804;DHT22;21924;51.934;7.414;2023-04-06T07:57:13;5.40;99.90
35804;DHT22;21924;51.934;7.414;2023-04-06T07:59:58;5.50;99.90
35804;DHT22;21924;51.934;7.414;2023-04-06T08:02:42;5.60;99.90
35804;DHT22;21924;51.934;7.414;2023-04-06T08:05:26;5.60;99.90
35804;DHT22;21924;51.934;7.414;2023-04-06T08:08:10;5.70;99.90
35804;DHT22;21924;51.934;7.414;2023-04-06T08:10:55;5.80;99.90
35804;DHT22;21924;51.934;7.414;2023-04-06T08:13:39;5.80;99.90
35804;DHT22;21924;51.934;7.414;2023-04-06T08:16:23;6.10;99.90
35804;DHT22;21924;51.934;7.414;2023-04-06T08:19:08;6.20;99.90
35804;DHT22;21924;51.934;7.414;2023-04-06T08:21:53;6.30;99.90
35804;DHT22;21924;51.934;7.414;2023-04-06T08:24:37;6.40;99.90
35804;DHT22;21924;51.934;7.414;2023-04-06T08:27:22;6.60;99.90
35804;DHT22;21924;51.934;7.414;2023-04-06T08:30:06;6.70;99.90
35804;DHT22;21924;51.934;7.414;2023-04-06T08:32:51;6.80;99.90
35804;DHT22;21924;51.934;7.414;2023-04-06T08:35:35;6.90;99.90
35804;DHT22;21924;51.934;7.414;2023-04-06T08:38:19;7.00;99.90
35804;DHT22;21924;51.934;7.414;2023-04-06T08:41:10;7.10;99.90
35804;DHT22;21924;51.934;7.414;2023-04-06T08:43:59;7.00;99.90
35804;DHT22;21924;51.934;7.414;2023-04-06T08:46:44;7.20;99.90
35804;DHT22;21924;51.934;7.414;2023-04-06T08:49:28;7.20;99.90
35804;DHT22;21924;51.934;7.414;2023-04-06T08:52:12;7.30;99.90
35804;DHT22;21924;51.934;7.414;2023-04-06T08:54:56;7.30;99.90
35804;DHT22;21924;51.934;7.414;2023-04-06T08:57:42;7.40;99.90
35804;DHT22;21924;51.934;7.414;2023-04-06T09:00:27;7.50;99.90
35804;DHT22;21924;51.934;7.414;2023-04-06T09:03:12;7.70;99.90
35804;DHT22;21924;51.934;7.414;2023-04-06T09:05:58;7.70;99.90
35804;DHT22;21924;51.934;7.414;2023-04-06T09:08:42;7.80;99.90
35804;DHT22;21924;51.934;7.414;2023-04-06T09:11:26;8.00;99.90
35804;DHT22;21924;51.934;7.414;2023-04-06T09:14:11;8.10;99.90
35804;DHT22;21924;51.934;7.414;2023-04-06T09:16:55;8.20;99.90
35804;DHT22;21924;51.934;7.414;2023-04-06T09:19:46;8.40;99.90
35804;DHT22;21924;51.934;7.414;2023-04-06T09:22:40;8.60;99.90
35804;DHT22;21924;51.934;7.414;2023-04-06T09:25:25;8.90;99.90
35804;DHT22;21924;51.934;7.414;2023-04-06T09:28:14;9.10;99.90
35804;DHT22;21924;51.934;7.414;2023-04-06T09:30:58;9.20;99.90
35804;DHT22;21924;51.934;7.414;2023-04-06T09:33:45;9.30;99.90
35804;DHT22;21924;51.934;7.414;2023-04-06T09:36:34;9.40;99.90
35804;DHT22;21924;51.934;7.414;2023-04-06T09:39:21;9.50;99.90
35804;DHT22;21924;51.934;7.414;2023-04-06T09:42:06;9.70;99.90
35804;DHT22;21924;51.934;7.414;2023-04-06T09:44:51;9.90;99.90
35804;DHT22;21924;51.934;7.414;2023-04-06T09:47:36;10.10;99.90
35804;DHT22;21924;51.934;7.414;2023-04-06T09:50:21;10.10;99.90
35804;DHT22;21924;51.934;7.414;2023-04-06T09:53:06;10.30;99.90
35804;DHT22;21924;51.934;7.414;2023-04-06T09:55:51;10.50;99.90
35804;DHT22;21924;51.934;7.414;2023-04-06T09:58:41;10.60;99.90
35804;DHT22;21924;51.934;7.414;2023-04-06T10:01:29;11.00;99.90
35804;DHT22;21924;51.934;7.414;2023-04-06T10:04:26;11.30;99.90
35804;DHT22;21924;51.934;7.414;2023-04-06T10:07:13;11.40;99.90
35804;DHT22;21924;51.934;7.414;2023-04-06T10:10:00;11.80;99.90
35804;DHT22;21924;51.934;7.414;2023-04-06T10:12:46;12.00;99.90
35804;DHT22;21924;51.934;7.414;2023-04-06T10:15:31;12.10;99.90
35804;DHT22;21924;51.934;7.414;2023-04-06T10:18:16;12.20;99.90
35804;DHT22;21924;51.934;7.414;2023-04-06T10:21:07;12.30;99.90
35804;DHT22;21924;51.934;7.414;2023-04-06T10:23:57;12.40;99.90
35804;DHT22;21924;51.934;7.414;2023-04-06T10:26:42;12.50;99.90
35804;DHT22;21924;51.934;7.414;2023-04-06T10:29:26;12.50;99.90
35804;DHT22;21924;51.934;7.414;2023-04-06T10:32:11;12.50;99.90
35804;DHT22;21924;51.934;7.414;2023-04-06T10:35:05;12.60;99.90
35804;DHT22;21924;51.934;7.414;2023-04-06T10:38:01;12.70;99.90
35804;DHT22;21924;51.934;7.414;2023-04-06T10:40:45;12.70;99.90
35804;DHT22;21924;51.934;7.414;2023-04-06T10:43:34;12.60;99.90
35804;DHT22;21924;51.934;7.414;2023-04-06T10:46:26;12.50;99.90
35804;DHT22;21924;51.934;7.414;2023-04-06T10:49:11;12.60;99.90
35804;DHT22;21924;51.934;7.414;2023-04-06T10:51:56;12.60;99.90
35804;DHT22;21924;51.934;7.414;2023-04-06T10:54:42;12.70;99.90
35804;DHT22;21924;51.934;7.414;2023-04-06T10:57:29;12.80;99.90
35804;DHT22;21924;51.934;7.414;2023-04-06T11:00:15;12.70;99.90
35804;DHT22;21924;51.934;7.414;2023-04-06T11:03:00;12.80;99.90
35804;DHT22;21924;51.934;7.414;2023-04-06T11:05:45;12.80;99.90
35804;DHT22;21924;51.934;7.414;2023-04-06T11:08:31;12.90;99.90
35804;DHT22;21924;51.934;7.414;2023-04-06T11:11:17;13.10;99.90
35804;DHT22;21924;51.934;7.414;2023-04-06T11:14:02;13.40;99.90
35804;DHT22;21924;51.934;7.414;2023-04-06T11:16:47;13.70;99.90
35804;DHT22;21924;51.934;7.414;2023-04-06T11:19:35;13.80;99.90
35804;DHT22;21924;51.934;7.414;2023-04-06T11:22:19;13.90;99.90
35804;DHT22;21924;51.934;7.414;2023-04-06T11:25:07;13.90;99.90
35804;DHT22;21924;51.934;7.414;2023-04-06T11:27:52;14.30;99.90
35804;DHT22;21924;51.934;7.414;2023-04-06T11:30:36;14.10;99.90
35804;DHT22;21924;51.934;7.414;2023-04-06T11:33:21;14.00;99.90
35804;DHT22;21924;51.934;7.414;2023-04-06T11:36:06;13.90;99.90
35804;DHT22;21924;51.934;7.414;2023-04-06T11:38:51;14.00;99.90
35804;DHT22;21924;51.934;7.414;2023-04-06T11:41:35;13.90;99.90
35804;DHT22;21924;51.934;7.414;2023-04-06T11:44:36;14.00;99.90
35804;DHT22;21924;51.934;7.414;2023-04-06T11:47:30;14.00;99.90
35804;DHT22;21924;51.934;7.414;2023-04-06T11:50:14;14.10;99.90
35804;DHT22;21924;51.934;7.414;2023-04-06T11:53:00;14.10;99.90
35804;DHT22;21924;51.934;7.414;2023-04-06T11:55:44;14.20;99.90
35804;DHT22;21924;51.934;7.414;2023-04-06T11:58:31;14.20;99.90
35804;DHT22;21924;51.934;7.414;2023-04-06T12:01:15;14.40;99.90
35804;DHT22;21924;51.934;7.414;2023-04-06T12:03:59;14.50;99.90
35804;DHT22;21924;51.934;7.414;2023-04-06T12:06:44;14.50;99.90
35804;DHT22;21924;51.934;7.414;2023-04-06T12:09:28;14.50;99.90
35804;DHT22;21924;51.934;7.414;2023-04-06T12:12:12;14.60;99.90
35804;DHT22;21924;51.934;7.414;2023-04-06T12:14:57;14.70;99.90
35804;DHT22;21924;51.934;7.414;2023-04-06T12:17:41;14.60;99.90
35804;DHT22;21924;51.934;7.414;2023-04-06T12:20:25;14.50;99.90
35804;DHT22;21924;51.934;7.414;2023-04-06T12:23:10;14.40;99.90
35804;DHT22;21924;51.934;7.414;2023-04-06T12:25:54;14.30;99.90
35804;DHT22;21924;51.934;7.414;2023-04-06T12:28:39;14.10;99.90
35804;DHT22;21924;51.934;7.414;2023-04-06T12:31:24;14.10;99.90
35804;DHT22;21924;51.934;7.414;2023-04-06T12:34:09;14.30;99.90
35804;DHT22;21924;51.934;7.414;2023-04-06T12:36:53;14.40;99.90
35804;DHT22;21924;51.934;7.414;2023-04-06T12:39:38;14.50;99.90
35804;DHT22;21924;51.934;7.414;2023-04-06T12:42:22;14.70;99.90
35804;DHT22;21924;51.934;7.414;2023-04-06T12:45:07;14.90;99.90
35804;DHT22;21924;51.934;7.414;2023-04-06T12:47:51;14.90;99.90
35804;DHT22;21924;51.934;7.414;2023-04-06T12:50:36;14.90;99.90
35804;DHT22;21924;51.934;7.414;2023-04-06T12:53:21;14.70;99.90
35804;DHT22;21924;51.934;7.414;2023-04-06T12:56:13;14.80;99.90
35804;DHT22;21924;51.934;7.414;2023-04-06T12:58:59;14.90;99.90
35804;DHT22;21924;51.934;7.414;2023-04-06T13:01:45;15.00;99.90
35804;DHT22;21924;51.934;7.414;2023-04-06T13:04:29;15.00;99.90
35804;DHT22;21924;51.934;7.414;2023-04-06T13:07:14;14.90;99.90
35804;DHT22;21924;51.934;7.414;2023-04-06T13:09:58;15.00;99.90
35804;DHT22;21924;51.934;7.414;2023-04-06T13:12:43;15.00;99.90
35804;DHT22;21924;51.934;7.414;2023-04-06T13:15:27;14.90;99.90
35804;DHT22;21924;51.934;7.414;2023-04-06T13:18:11;14.60;99.90
35804;DHT22;21924;51.934;7.414;2023-04-06T13:20:56;14.60;99.90
35804;DHT22;21924;51.934;7.414;2023-04-06T13:23:40;14.50;99.90
35804;DHT22;21924;51.934;7.414;2023-04-06T13:26:24;14.50;99.90
35804;DHT22;21924;51.934;7.414;2023-04-06T13:29:10;14.50;99.90
35804;DHT22;21924;51.934;7.414;2023-04-06T13:31:54;14.40;99.90
35804;DHT22;21924;51.934;7.414;2023-04-06T13:34:38;14.50;99.90
35804;DHT22;21924;51.934;7.414;2023-04-06T13:37:23;14.50;99.90
35804;DHT22;21924;51.934;7.414;2023-04-06T13:40:08;14.60;99.90
35804;DHT22;21924;51.934;7.414;2023-04-06T13:42:53;14.60;99.90
35804;DHT22;21924;51.934;7.414;2023-04-06T13:45:38;14.60;99.90
35804;DHT22;21924;51.934;7.414;2023-04-06T13:48:23;14.80;99.90
35804;DHT22;21924;51.934;7.414;2023-04-06T13:51:10;14.70;99.90
35804;DHT22;21924;51.934;7.414;2023-04-06T13:53:55;14.80;99.90
35804;DHT22;21924;51.934;7.414;2023-04-06T13:56:39;14.80;99.90
35804;DHT22;21924;51.934;7.414;2023-04-06T13:59:23;14.70;99.90
35804;DHT22;21924;51.934;7.414;2023-04-06T14:02:09;14.70;99.90
35804;DHT22;21924;51.934;7.414;2023-04-06T14:04:53;14.70;99.90
35804;DHT22;21924;51.934;7.414;2023-04-06T14:07:38;14.60;99.90
35804;DHT22;21924;51.934;7.414;2023-04-06T14:10:22;14.40;99.90
35804;DHT22;21924;51.934;7.414;2023-04-06T14:13:07;14.20;99.90
35804;DHT22;21924;51.934;7.414;2023-04-06T14:15:55;14.20;99.90
35804;DHT22;21924;51.934;7.414;2023-04-06T14:18:39;14.20;99.90
35804;DHT22;21924;51.934;7.414;2023-04-06T14:21:23;14.10;99.90
35804;DHT22;21924;51.934;7.414;2023-04-06T14:24:08;14.20;99.90
35804;DHT22;21924;51.934;7.414;2023-04-06T14:26:52;14.00;99.90
35804;DHT22;21924;51.934;7.414;2023-04-06T14:29:37;13.90;99.90
35804;DHT22;21924;51.934;7.414;2023-04-06T14:32:21;13.90;99.90
35804;DHT22;21924;51.934;7.414;2023-04-06T14:35:05;13.80;99.90
35804;DHT22;21924;51.934;7.414;2023-04-06T14:37:49;13.80;99.90
35804;DHT22;21924;51.934;7.414;2023-04-06T14:40:35;13.70;99.90
35804;DHT22;21924;51.934;7.414;2023-04-06T14:43:20;13.70;99.90
35804;DHT22;21924;51.934;7.414;2023-04-06T14:46:04;13.70;99.90
35804;DHT22;21924;51.934;7.414;2023-04-06T14:48:48;13.50;99.90
35804;DHT22;21924;51.934;7.414;2023-04-06T14:51:34;13.50;99.90
35804;DHT22;21924;51.934;7.414;2023-04-06T14:54:19;13.50;99.90
35804;DHT22;21924;51.934;7.414;2023-04-06T14:57:03;13.40;99.90
35804;DHT22;21924;51.934;7.414;2023-04-06T14:59:48;13.30;99.90
35804;DHT22;21924;51.934;7.414;2023-04-06T15:02:32;13.20;99.90
35804;DHT22;21924;51.934;7.414;2023-04-06T15:05:16;13.20;99.90
35804;DHT22;21924;51.934;7.414;2023-04-06T15:08:01;13.10;99.90
35804;DHT22;21924;51.934;7.414;2023-04-06T15:10:46;13.10;99.90
35804;DHT22;21924;51.934;7.414;2023-04-06T15:13:30;13.00;99.90
35804;DHT22;21924;51.934;7.414;2023-04-06T15:16:15;13.00;99.90
35804;DHT22;21924;51.934;7.414;2023-04-06T15:19:00;12.80;99.90
35804;DHT22;21924;51.934;7.414;2023-04-06T15:21:44;12.80;99.90
35804;DHT22;21924;51.934;7.414;2023-04-06T15:24:28;12.90;99.90
35804;DHT22;21924;51.934;7.414;2023-04-06T15:27:12;12.90;99.90
35804;DHT22;21924;51.934;7.414;2023-04-06T15:29:57;12.80;99.90
35804;DHT22;21924;51.934;7.414;2023-04-06T15:32:57;12.80;99.90
35804;DHT22;21924;51.934;7.414;2023-04-06T15:35:42;12.80;99.90
35804;DHT22;21924;51.934;7.414;2023-04-06T15:38:26;12.80;99.90
35804;DHT22;21924;51.934;7.414;2023-04-06T15:41:10;12.70;99.90
35804;DHT22;21924;51.934;7.414;2023-04-06T15:43:58;12.70;99.90
35804;DHT22;21924;51.934;7.414;2023-04-06T15:46:42;12.50;99.90
35804;DHT22;21924;51.934;7.414;2023-04-06T15:49:26;12.30;99.90
35804;DHT22;21924;51.934;7.414;2023-04-06T15:52:11;12.20;99.90
35804;DHT22;21924;51.934;7.414;2023-04-06T15:54:55;12.20;99.90
35804;DHT22;21924;51.934;7.414;2023-04-06T15:57:40;12.10;99.90
35804;DHT22;21924;51.934;7.414;2023-04-06T16:00:24;12.00;99.90
35804;DHT22;21924;51.934;7.414;2023-04-06T16:03:08;12.00;99.90
35804;DHT22;21924;51.934;7.414;2023-04-06T16:05:53;11.90;99.90
35804;DHT22;21924;51.934;7.414;2023-04-06T16:08:38;11.90;99.90
35804;DHT22;21924;51.934;7.414;2023-04-06T16:11:22;11.80;99.90
35804;DHT22;21924;51.934;7.414;2023-04-06T16:14:07;11.90;99.90
35804;DHT22;21924;51.934;7.414;2023-04-06T16:16:51;11.80;99.90
35804;DHT22;21924;51.934;7.414;2023-04-06T16:19:35;11.70;99.90
35804;DHT22;21924;51.934;7.414;2023-04-06T16:22:21;11.50;99.90
35804;DHT22;21924;51.934;7.414;2023-04-06T16:25:05;11.40;99.90
35804;DHT22;21924;51.934;7.414;2023-04-06T16:27:50;11.30;99.90
35804;DHT22;21924;51.934;7.414;2023-04-06T16:30:38;11.20;99.90
35804;DHT22;21924;51.934;7.414;2023-04-06T16:33:22;11.30;99.90
35804;DHT22;21924;51.934;7.414;2023-04-06T16:36:07;11.30;99.90
35804;DHT22;21924;51.934;7.414;2023-04-06T16:38:55;11.20;99.90
35804;DHT22;21924;51.934;7.414;2023-04-06T16:41:39;11.10;99.90
35804;DHT22;21924;51.934;7.414;2023-04-06T16:44:24;11.00;99.90
35804;DHT22;21924;51.934;7.414;2023-04-06T16:47:08;10.80;99.90
35804;DHT22;21924;51.934;7.414;2023-04-06T16:49:53;10.70;99.90
35804;DHT22;21924;51.934;7.414;2023-04-06T16:52:37;10.60;99.90
35804;DHT22;21924;51.934;7.414;2023-04-06T16:55:21;10.60;99.90
35804;DHT22;21924;51.934;7.414;2023-04-06T16:58:06;10.50;99.90
35804;DHT22;21924;51.934;7.414;2023-04-06T17:00:50;10.40;99.90
35804;DHT22;21924;51.934;7.414;2023-04-06T17:03:34;10.30;99.90
35804;DHT22;21924;51.934;7.414;2023-04-06T17:06:18;10.20;99.90
35804;DHT22;21924;51.934;7.414;2023-04-06T17:09:03;10.10;99.90
35804;DHT22;21924;51.934;7.414;2023-04-06T17:11:47;10.00;99.90
35804;DHT22;21924;51.934;7.414;2023-04-06T17:14:31;9.80;99.90
35804;DHT22;21924;51.934;7.414;2023-04-06T17:17:16;9.70;99.90
35804;DHT22;21924;51.934;7.414;2023-04-06T17:20:00;9.60;99.90
35804;DHT22;21924;51.934;7.414;2023-04-06T17:22:44;9.50;99.90
35804;DHT22;21924;51.934;7.414;2023-04-06T17:25:32;9.60;99.90
35804;DHT22;21924;51.934;7.414;2023-04-06T17:28:16;9.40;99.90
35804;DHT22;21924;51.934;7.414;2023-04-06T17:31:01;9.30;99.90